Time,TemperatureF,DewpointF,PressureIn,WindDirection,WindDirectionDegrees,WindSpeedMPH,WindSpeedGustMPH,Humidity,HourlyPrecipIn,Conditions,Clouds,dailyrainin,SoftwareType,DateUTC
2013-07-26 00:02:00,67.0,36.0,-100.00,NNW,332,3.0,5.0,32,-99.99,,,-99.99,,2013-07-26 06:02:00,
2013-07-26 00:12:00,67.0,36.0,-100.00,NNW,332,3.0,5.0,32,-99.99,,,-99.99,,2013-07-26 06:12:00,
2013-07-26 00:22:00,67.0,36.0,-100.00,NNW,332,3.0,6.0,31,-99.99,,,-99.99,,2013-07-26 06:22:00,
2013-07-26 00:33:00,67.0,36.0,-100.00,NNW,332,3.0,6.0,31,-99.99,,,-99.99,,2013-07-26 06:33:00,
2013-07-26 00:43:00,67.0,36.0,-100.00,NNW,336,2.0,4.0,32,-99.99,,,-99.99,,2013-07-26 06:43:00,
2013-07-26 00:52:00,67.0,36.0,-100.00,NNW,336,2.0,4.0,32,-99.99,,,-99.99,,2013-07-26 06:52:00,
2013-07-26 01:02:00,66.0,35.0,-100.00,NNW,330,2.0,5.0,31,-99.99,,,-99.99,,2013-07-26 07:02:00,
2013-07-26 01:22:00,66.0,34.0,-100.00,NW,314,2.0,5.0,31,-99.99,,,-99.99,,2013-07-26 07:22:00,
2013-07-26 01:32:00,66.0,34.0,-100.00,NW,314,2.0,5.0,31,-99.99,,,-99.99,,2013-07-26 07:32:00,
2013-07-26 01:43:00,66.0,33.0,-100.00,WNW,296,3.0,5.0,29,-99.99,,,-99.99,,2013-07-26 07:43:00,
2013-07-26 01:53:00,66.0,33.0,-100.00,WNW,296,3.0,5.0,29,-99.99,,,-99.99,,2013-07-26 07:53:00,
2013-07-26 02:02:00,65.0,33.0,-100.00,WNW,287,3.0,6.0,29,-99.99,,,-99.99,,2013-07-26 08:02:00,
2013-07-26 02:12:00,65.0,33.0,-100.00,WNW,287,3.0,6.0,29,-99.99,,,-99.99,,2013-07-26 08:12:00,
2013-07-26 02:22:00,66.0,32.0,-100.00,West,277,2.0,5.0,28,-99.99,,,-99.99,,2013-07-26 08:22:00,
2013-07-26 02:32:00,66.0,32.0,-100.00,West,277,2.0,5.0,28,-99.99,,,-99.99,,2013-07-26 08:32:00,
2013-07-26 03:02:00,66.0,31.0,-100.00,NNW,327,0.0,1.0,27,-99.99,,,-99.99,,2013-07-26 09:02:00,
2013-07-26 03:12:00,66.0,31.0,-100.00,NNW,329,0.0,2.0,27,-99.99,,,-99.99,,2013-07-26 09:12:00,
2013-07-26 03:22:00,66.0,31.0,-100.00,NNW,329,0.0,2.0,27,-99.99,,,-99.99,,2013-07-26 09:22:00,
2013-07-26 03:32:00,66.0,31.0,-100.00,NNW,329,0.0,2.0,27,-99.99,,,-99.99,,2013-07-26 09:32:00,
2013-07-26 03:52:00,66.0,31.0,-100.00,SSW,201,1.0,4.0,27,-99.99,,,-99.99,,2013-07-26 09:52:00,
2013-07-26 04:02:00,66.0,32.0,-100.00,South,187,4.0,6.0,28,-99.99,,,-99.99,,2013-07-26 10:02:00,
2013-07-26 04:12:00,66.0,32.0,-100.00,South,187,4.0,6.0,28,-99.99,,,-99.99,,2013-07-26 10:12:00,
2013-07-26 04:22:00,63.0,33.0,-100.00,South,183,4.0,6.0,32,-99.99,,,-99.99,,2013-07-26 10:22:00,
2013-07-26 04:32:00,63.0,33.0,-100.00,South,183,4.0,6.0,32,-99.99,,,-99.99,,2013-07-26 10:32:00,
2013-07-26 04:42:00,62.0,33.0,-100.00,South,188,4.0,6.0,33,-99.99,,,-99.99,,2013-07-26 10:42:00,
2013-07-26 04:52:00,62.0,33.0,-100.00,South,188,4.0,6.0,33,-99.99,,,-99.99,,2013-07-26 10:52:00,
2013-07-26 05:02:00,63.0,32.0,-100.00,SSW,213,4.0,6.0,31,-99.99,,,-99.99,,2013-07-26 11:02:00,
2013-07-26 05:12:00,63.0,32.0,-100.00,SSW,213,4.0,6.0,31,-99.99,,,-99.99,,2013-07-26 11:12:00,
2013-07-26 05:22:00,64.0,32.0,-100.00,SW,228,2.0,6.0,30,-99.99,,,-99.99,,2013-07-26 11:22:00,
2013-07-26 05:32:00,64.0,32.0,-100.00,SW,228,2.0,6.0,30,-99.99,,,-99.99,,2013-07-26 11:32:00,
2013-07-26 05:43:00,63.0,33.0,-100.00,SSW,205,5.0,7.0,31,-99.99,,,-99.99,,2013-07-26 11:43:00,
2013-07-26 05:52:00,63.0,33.0,-100.00,SSW,205,5.0,7.0,31,-99.99,,,-99.99,,2013-07-26 11:52:00,
2013-07-26 06:02:00,65.0,32.0,-100.00,SSW,200,1.0,4.0,29,-99.99,,,-99.99,,2013-07-26 12:02:00,
2013-07-26 06:12:00,65.0,32.0,-100.00,SSW,200,1.0,4.0,29,-99.99,,,-99.99,,2013-07-26 12:12:00,
2013-07-26 06:22:00,65.0,32.0,-100.00,North,0,0.0,0.0,29,-99.99,,,-99.99,,2013-07-26 12:22:00,
2013-07-26 06:33:00,65.0,32.0,-100.00,North,0,0.0,0.0,29,-99.99,,,-99.99,,2013-07-26 12:33:00,
2013-07-26 06:43:00,65.0,32.0,-100.00,NNW,332,0.0,1.0,29,-99.99,,,-99.99,,2013-07-26 12:43:00,
2013-07-26 06:53:00,65.0,32.0,-100.00,NNW,332,0.0,1.0,29,-99.99,,,-99.99,,2013-07-26 12:53:00,
2013-07-26 07:22:00,64.0,33.0,-100.00,North,352,0.0,2.0,32,-99.99,,,-99.99,,2013-07-26 13:22:00,
2013-07-26 07:32:00,64.0,33.0,-100.00,North,352,0.0,2.0,32,-99.99,,,-99.99,,2013-07-26 13:32:00,
2013-07-26 07:43:00,62.0,34.0,-100.00,NNE,12,0.0,2.0,35,-99.99,,,-99.99,,2013-07-26 13:43:00,
2013-07-26 07:53:00,62.0,34.0,-100.00,NNE,12,0.0,2.0,35,-99.99,,,-99.99,,2013-07-26 13:53:00,
2013-07-26 08:02:00,63.0,34.0,-100.00,North,0,0.0,0.0,34,-99.99,,,-99.99,,2013-07-26 14:02:00,
2013-07-26 08:12:00,63.0,34.0,-100.00,North,0,0.0,0.0,34,-99.99,,,-99.99,,2013-07-26 14:12:00,
2013-07-26 08:22:00,64.0,34.0,-100.00,North,354,0.0,1.0,32,-99.99,,,-99.99,,2013-07-26 14:22:00,
2013-07-26 08:32:00,64.0,34.0,-100.00,North,354,0.0,1.0,32,-99.99,,,-99.99,,2013-07-26 14:32:00,
2013-07-26 08:43:00,65.0,35.0,-100.00,North,0,0.0,0.0,33,-99.99,,,-99.99,,2013-07-26 14:43:00,
2013-07-26 08:53:00,65.0,35.0,-100.00,North,0,0.0,0.0,33,-99.99,,,-99.99,,2013-07-26 14:53:00,
2013-07-26 09:12:00,65.0,38.0,-100.00,SSE,153,0.0,2.0,37,-99.99,,,-99.99,,2013-07-26 15:12:00,
2013-07-26 09:22:00,66.0,37.0,-100.00,North,358,0.0,2.0,34,-99.99,,,-99.99,,2013-07-26 15:22:00,
2013-07-26 09:32:00,66.0,37.0,-100.00,North,358,0.0,2.0,34,-99.99,,,-99.99,,2013-07-26 15:32:00,
2013-07-26 09:53:00,66.0,45.0,-100.00,North,357,0.0,2.0,46,-99.99,,,-99.99,,2013-07-26 15:53:00,
2013-07-26 10:14:00,67.0,45.0,-100.00,NE,41,0.0,3.0,45,-99.99,,,-99.99,,2013-07-26 16:14:00,
2013-07-26 10:22:00,67.0,44.0,-100.00,NNE,28,2.0,4.0,44,-99.99,,,-99.99,,2013-07-26 16:22:00,
2013-07-26 10:32:00,67.0,44.0,-100.00,NNE,28,2.0,4.0,44,-99.99,,,-99.99,,2013-07-26 16:32:00,
2013-07-26 10:43:00,68.0,39.0,-100.00,NNE,22,1.0,3.0,35,-99.99,,,-99.99,,2013-07-26 16:43:00,
2013-07-26 10:54:00,68.0,39.0,-100.00,NNE,22,1.0,3.0,35,-99.99,,,-99.99,,2013-07-26 16:54:00,
2013-07-26 11:02:00,68.0,42.0,-100.00,NNE,14,1.0,3.0,39,-99.99,,,-99.99,,2013-07-26 17:02:00,
2013-07-26 11:12:00,68.0,42.0,-100.00,NNE,14,1.0,3.0,39,-99.99,,,-99.99,,2013-07-26 17:12:00,
2013-07-26 11:22:00,68.0,41.0,-100.00,North,11,2.0,5.0,36,-99.99,,,-99.99,,2013-07-26 17:22:00,
2013-07-26 11:33:00,68.0,41.0,-100.00,North,11,2.0,5.0,36,-99.99,,,-99.99,,2013-07-26 17:33:00,
2013-07-26 11:43:00,70.0,40.0,-100.00,North,10,4.0,7.0,33,-99.99,,,-99.99,,2013-07-26 17:43:00,
2013-07-26 11:53:00,70.0,40.0,-100.00,North,10,4.0,7.0,33,-99.99,,,-99.99,,2013-07-26 17:53:00,
2013-07-26 12:02:00,71.0,39.0,-100.00,North,358,5.0,9.0,32,-99.99,,,-99.99,,2013-07-26 18:02:00,
2013-07-26 12:12:00,71.0,39.0,-100.00,North,358,5.0,9.0,32,-99.99,,,-99.99,,2013-07-26 18:12:00,
2013-07-26 12:22:00,71.0,39.0,-100.00,North,357,6.0,10.0,30,-99.99,,,-99.99,,2013-07-26 18:22:00,
2013-07-26 12:33:00,71.0,39.0,-100.00,North,357,6.0,10.0,30,-99.99,,,-99.99,,2013-07-26 18:33:00,
2013-07-26 12:52:00,73.0,38.0,-100.00,North,9,5.0,10.0,27,-99.99,,,-99.99,,2013-07-26 18:52:00,
2013-07-26 13:02:00,74.0,38.0,-100.00,North,3,6.0,13.0,26,-99.99,,,-99.99,,2013-07-26 19:02:00,
2013-07-26 13:12:00,74.0,38.0,-100.00,North,3,6.0,13.0,26,-99.99,,,-99.99,,2013-07-26 19:12:00,
2013-07-26 13:22:00,74.0,36.0,-100.00,North,353,6.0,17.0,24,-99.99,,,-99.99,,2013-07-26 19:22:00,
2013-07-26 13:32:00,74.0,36.0,-100.00,North,353,6.0,17.0,24,-99.99,,,-99.99,,2013-07-26 19:32:00,
2013-07-26 13:43:00,75.0,32.0,-100.00,North,1,10.0,18.0,20,-99.99,,,-99.99,,2013-07-26 19:43:00,
2013-07-26 13:52:00,75.0,32.0,-100.00,North,1,10.0,18.0,20,-99.99,,,-99.99,,2013-07-26 19:52:00,
2013-07-26 14:22:00,76.0,35.0,-100.00,North,1,9.0,19.0,22,-99.99,,,-99.99,,2013-07-26 20:22:00,
2013-07-26 14:32:00,76.0,35.0,-100.00,North,1,9.0,19.0,22,-99.99,,,-99.99,,2013-07-26 20:32:00,
2013-07-26 16:32:00,76.0,30.0,-100.00,NW,309,8.0,15.0,18,-99.99,,,-99.99,,2013-07-26 22:32:00,
2013-07-26 16:43:00,77.0,30.0,-100.00,North,358,9.0,17.0,18,-99.99,,,-99.99,,2013-07-26 22:43:00,
2013-07-26 16:53:00,77.0,30.0,-100.00,North,358,9.0,17.0,18,-99.99,,,-99.99,,2013-07-26 22:53:00,
2013-07-26 17:02:00,77.0,31.0,-100.00,North,0,7.0,16.0,18,-99.99,,,-99.99,,2013-07-26 23:02:00,
2013-07-26 17:12:00,77.0,31.0,-100.00,North,0,7.0,16.0,18,-99.99,,,-99.99,,2013-07-26 23:12:00,
2013-07-26 17:22:00,77.0,31.0,-100.00,North,352,8.0,16.0,18,-99.99,,,-99.99,,2013-07-26 23:22:00,
2013-07-26 17:32:00,77.0,31.0,-100.00,North,352,8.0,16.0,18,-99.99,,,-99.99,,2013-07-26 23:32:00,
2013-07-26 17:53:00,79.0,31.0,-100.00,NNW,345,8.0,18.0,17,-99.99,,,-99.99,,2013-07-26 23:53:00,
2013-07-26 18:12:00,79.0,32.0,-100.00,North,359,8.0,16.0,18,-99.99,,,-99.99,,2013-07-27 00:12:00,
2013-07-26 18:22:00,78.0,31.0,-100.00,North,354,9.0,20.0,18,-99.99,,,-99.99,,2013-07-27 00:22:00,
2013-07-26 18:32:00,78.0,31.0,-100.00,North,354,9.0,20.0,18,-99.99,,,-99.99,,2013-07-27 00:32:00,
2013-07-26 18:53:00,79.0,30.0,-100.00,NNW,340,7.0,14.0,16,-99.99,,,-99.99,,2013-07-27 00:53:00,
2013-07-26 19:02:00,78.0,29.0,-100.00,North,352,7.0,14.0,16,-99.99,,,-99.99,,2013-07-27 01:02:00,
2013-07-26 19:12:00,78.0,29.0,-100.00,North,352,7.0,14.0,16,-99.99,,,-99.99,,2013-07-27 01:12:00,
2013-07-26 19:22:00,78.0,31.0,-100.00,North,352,5.0,10.0,18,-99.99,,,-99.99,,2013-07-27 01:22:00,
2013-07-26 19:32:00,78.0,31.0,-100.00,North,352,5.0,10.0,18,-99.99,,,-99.99,,2013-07-27 01:32:00,
2013-07-26 19:43:00,74.0,31.0,-100.00,NW,311,6.0,12.0,20,-99.99,,,-99.99,,2013-07-27 01:43:00,
2013-07-26 19:53:00,74.0,31.0,-100.00,NW,311,6.0,12.0,20,-99.99,,,-99.99,,2013-07-27 01:53:00,
2013-07-26 20:02:00,74.0,31.0,-100.00,NW,311,6.0,12.0,20,-99.99,,,-99.99,,2013-07-27 02:02:00,
2013-07-26 20:22:00,73.0,32.0,-100.00,NW,305,6.0,11.0,22,-99.99,,,-99.99,,2013-07-27 02:22:00,
2013-07-26 20:32:00,73.0,32.0,-100.00,NW,305,6.0,11.0,22,-99.99,,,-99.99,,2013-07-27 02:32:00,
2013-07-26 20:53:00,73.0,30.0,-100.00,WNW,285,6.0,11.0,21,-99.99,,,-99.99,,2013-07-27 02:53:00,
2013-07-26 21:02:00,71.0,30.0,-100.00,West,280,6.0,11.0,21,-99.99,,,-99.99,,2013-07-27 03:02:00,
2013-07-26 21:12:00,71.0,30.0,-100.00,West,280,6.0,11.0,21,-99.99,,,-99.99,,2013-07-27 03:12:00,
2013-07-26 21:22:00,70.0,30.0,-100.00,West,271,5.0,10.0,22,-99.99,,,-99.99,,2013-07-27 03:22:00,
2013-07-26 21:32:00,70.0,30.0,-100.00,West,271,5.0,10.0,22,-99.99,,,-99.99,,2013-07-27 03:32:00,
2013-07-26 21:44:00,70.0,29.0,-100.00,WNW,282,6.0,11.0,21,-99.99,,,-99.99,,2013-07-27 03:44:00,
2013-07-26 21:52:00,70.0,29.0,-100.00,WNW,282,6.0,11.0,21,-99.99,,,-99.99,,2013-07-27 03:52:00,
2013-07-26 22:02:00,70.0,28.0,-100.00,West,280,6.0,11.0,20,-99.99,,,-99.99,,2013-07-27 04:02:00,
2013-07-26 22:12:00,70.0,28.0,-100.00,West,280,6.0,11.0,20,-99.99,,,-99.99,,2013-07-27 04:12:00,
2013-07-26 22:22:00,70.0,27.0,-100.00,West,277,5.0,9.0,19,-99.99,,,-99.99,,2013-07-27 04:22:00,
2013-07-26 22:32:00,70.0,27.0,-100.00,West,277,5.0,9.0,19,-99.99,,,-99.99,,2013-07-27 04:32:00,
2013-07-26 22:43:00,70.0,25.0,-100.00,West,263,5.0,9.0,18,-99.99,,,-99.99,,2013-07-27 04:43:00,
2013-07-26 22:53:00,70.0,25.0,-100.00,West,263,5.0,9.0,18,-99.99,,,-99.99,,2013-07-27 04:53:00,
2013-07-26 23:12:00,71.0,25.0,-100.00,West,265,6.0,9.0,18,-99.99,,,-99.99,,2013-07-27 05:12:00,
2013-07-26 23:22:00,70.0,25.0,-100.00,West,277,5.0,8.0,18,-99.99,,,-99.99,,2013-07-27 05:22:00,
2013-07-26 23:32:00,70.0,25.0,-100.00,West,277,5.0,8.0,18,-99.99,,,-99.99,,2013-07-27 05:32:00,
2013-07-26 23:43:00,71.0,25.0,-100.00,NNW,341,1.0,3.0,17,-99.99,,,-99.99,,2013-07-27 05:43:00,
2013-07-26 23:52:00,71.0,25.0,-100.00,NNW,341,1.0,3.0,17,-99.99,,,-99.99,,2013-07-27 05:52:00,